sensor_id;sensor_type;location;lat;lon;timestamp;temperature;humidity
24011;DHT22;12217;50.792;4.372;2023-09-19T00:00:37;16.80;99.90
24011;DHT22;12217;50.792;4.372;2023-09-19T00:03:03;16.60;99.90
24011;DHT22;12217;50.792;4.372;2023-09-19T00:05:33;16.60;99.90
24011;DHT22;12217;50.792;4.372;2023-09-19T00:08:00;16.70;99.90
24011;DHT22;12217;50.792;4.372;2023-09-19T00:10:27;16.70;99.90
24011;DHT22;12217;50.792;4.372;2023-09-19T00:12:57;16.60;99.90
24011;DHT22;12217;50.792;4.372;2023-09-19T00:15:25;16.60;99.90
24011;DHT22;12217;50.792;4.372;2023-09-19T00:17:54;16.70;99.90
24011;DHT22;12217;50.792;4.372;2023-09-19T00:20:21;16.70;99.90
24011;DHT22;12217;50.792;4.372;2023-09-19T00:22:51;16.70;99.90
24011;DHT22;12217;50.792;4.372;2023-09-19T00:25:17;16.60;99.90
24011;DHT22;12217;50.792;4.372;2023-09-19T00:27:43;16.60;99.90
24011;DHT22;12217;50.792;4.372;2023-09-19T00:30:11;16.50;99.90
24011;DHT22;12217;50.792;4.372;2023-09-19T00:32:40;16.50;99.90
24011;DHT22;12217;50.792;4.372;2023-09-19T00:35:06;16.50;99.90
24011;DHT22;12217;50.792;4.372;2023-09-19T00:37:34;16.50;99.90
24011;DHT22;12217;50.792;4.372;2023-09-19T00:40:01;16.60;99.90
24011;DHT22;12217;50.792;4.372;2023-09-19T00:42:27;16.50;99.90
24011;DHT22;12217;50.792;4.372;2023-09-19T00:44:53;16.70;99.90
24011;DHT22;12217;50.792;4.372;2023-09-19T00:47:19;16.50;99.90
24011;DHT22;12217;50.792;4.372;2023-09-19T00:49:45;16.30;99.90
24011;DHT22;12217;50.792;4.372;2023-09-19T00:52:16;16.40;99.90
24011;DHT22;12217;50.792;4.372;2023-09-19T00:54:46;16.70;99.90
24011;DHT22;12217;50.792;4.372;2023-09-19T00:57:13;16.70;99.90
24011;DHT22;12217;50.792;4.372;2023-09-19T00:59:41;16.70;99.90
24011;DHT22;12217;50.792;4.372;2023-09-19T01:02:08;16.80;99.90
24011;DHT22;12217;50.792;4.372;2023-09-19T01:04:34;16.80;99.90
24011;DHT22;12217;50.792;4.372;2023-09-19T01:06:59;16.90;99.90
24011;DHT22;12217;50.792;4.372;2023-09-19T01:09:25;16.60;99.90
24011;DHT22;12217;50.792;4.372;2023-09-19T01:11:56;16.60;99.90
24011;DHT22;12217;50.792;4.372;2023-09-19T01:14:36;16.60;99.90
24011;DHT22;12217;50.792;4.372;2023-09-19T01:17:14;16.50;99.90
24011;DHT22;12217;50.792;4.372;2023-09-19T01:28:45;16.60;99.90
24011;DHT22;12217;50.792;4.372;2023-09-19T01:31:20;16.50;99.90
24011;DHT22;12217;50.792;4.372;2023-09-19T01:34:01;16.40;99.90
24011;DHT22;12217;50.792;4.372;2023-09-19T01:36:35;16.40;99.90
24011;DHT22;12217;50.792;4.372;2023-09-19T01:44:06;16.30;99.90
24011;DHT22;12217;50.792;4.372;2023-09-19T01:46:35;16.40;99.90
24011;DHT22;12217;50.792;4.372;2023-09-19T01:49:22;16.40;99.90
24011;DHT22;12217;50.792;4.372;2023-09-19T01:52:19;16.40;99.90
24011;DHT22;12217;50.792;4.372;2023-09-19T01:54:56;16.40;99.90
24011;DHT22;12217;50.792;4.372;2023-09-19T01:57:27;16.30;99.90
24011;DHT22;12217;50.792;4.372;2023-09-19T02:00:05;16.20;99.90
24011;DHT22;12217;50.792;4.372;2023-09-19T02:02:45;16.10;99.90
24011;DHT22;12217;50.792;4.372;2023-09-19T02:05:13;16.30;99.90
24011;DHT22;12217;50.792;4.372;2023-09-19T02:07:39;16.40;99.90
24011;DHT22;12217;50.792;4.372;2023-09-19T02:10:08;16.40;99.90
24011;DHT22;12217;50.792;4.372;2023-09-19T02:12:37;16.50;99.90
24011;DHT22;12217;50.792;4.372;2023-09-19T02:15:03;16.40;99.90
24011;DHT22;12217;50.792;4.372;2023-09-19T02:17:35;16.20;99.90
24011;DHT22;12217;50.792;4.372;2023-09-19T02:20:01;16.30;99.90
24011;DHT22;12217;50.792;4.372;2023-09-19T02:22:29;16.20;99.90
24011;DHT22;12217;50.792;4.372;2023-09-19T02:24:55;16.20;99.90
24011;DHT22;12217;50.792;4.372;2023-09-19T02:27:23;16.20;99.90
24011;DHT22;12217;50.792;4.372;2023-09-19T02:29:49;16.20;99.90
24011;DHT22;12217;50.792;4.372;2023-09-19T02:32:15;16.30;99.90
24011;DHT22;12217;50.792;4.372;2023-09-19T02:34:43;16.30;99.90
24011;DHT22;12217;50.792;4.372;2023-09-19T02:37:10;16.30;99.90
24011;DHT22;12217;50.792;4.372;2023-09-19T02:39:35;16.20;99.90
24011;DHT22;12217;50.792;4.372;2023-09-19T02:42:02;16.10;99.90
24011;DHT22;12217;50.792;4.372;2023-09-19T02:44:29;16.20;99.90
24011;DHT22;12217;50.792;4.372;2023-09-19T02:46:55;16.10;99.90
24011;DHT22;12217;50.792;4.372;2023-09-19T02:49:22;15.90;99.90
24011;DHT22;12217;50.792;4.372;2023-09-19T02:51:48;15.90;99.90
24011;DHT22;12217;50.792;4.372;2023-09-19T02:54:14;15.90;99.90
24011;DHT22;12217;50.792;4.372;2023-09-19T02:56:41;15.80;99.90
24011;DHT22;12217;50.792;4.372;2023-09-19T02:59:06;15.90;99.90
24011;DHT22;12217;50.792;4.372;2023-09-19T03:01:32;15.90;99.90
24011;DHT22;12217;50.792;4.372;2023-09-19T03:03:59;16.10;99.90
24011;DHT22;12217;50.792;4.372;2023-09-19T03:06:25;15.90;99.90
24011;DHT22;12217;50.792;4.372;2023-09-19T03:08:50;16.00;99.90
24011;DHT22;12217;50.792;4.372;2023-09-19T03:11:17;15.90;99.90
24011;DHT22;12217;50.792;4.372;2023-09-19T03:13:52;15.90;99.90
24011;DHT22;12217;50.792;4.372;2023-09-19T03:16:18;15.80;99.90
24011;DHT22;12217;50.792;4.372;2023-09-19T03:18:47;15.90;99.90
24011;DHT22;12217;50.792;4.372;2023-09-19T03:21:15;16.00;99.90
24011;DHT22;12217;50.792;4.372;2023-09-19T03:23:40;16.00;99.90
24011;DHT22;12217;50.792;4.372;2023-09-19T03:26:06;16.10;99.90
24011;DHT22;12217;50.792;4.372;2023-09-19T03:28:33;16.10;99.90
24011;DHT22;12217;50.792;4.372;2023-09-19T03:33:25;16.20;99.90
24011;DHT22;12217;50.792;4.372;2023-09-19T03:35:54;16.40;99.90
24011;DHT22;12217;50.792;4.372;2023-09-19T03:38:20;16.40;99.90
24011;DHT22;12217;50.792;4.372;2023-09-19T03:40:47;16.40;99.90
24011;DHT22;12217;50.792;4.372;2023-09-19T03:43:14;16.60;99.90
24011;DHT22;12217;50.792;4.372;2023-09-19T03:45:39;16.70;99.90
24011;DHT22;12217;50.792;4.372;2023-09-19T03:48:09;16.70;99.90
24011;DHT22;12217;50.792;4.372;2023-09-19T03:50:35;16.80;99.90
24011;DHT22;12217;50.792;4.372;2023-09-19T03:53:00;16.60;99.90
24011;DHT22;12217;50.792;4.372;2023-09-19T03:55:26;16.50;99.90
24011;DHT22;12217;50.792;4.372;2023-09-19T03:57:52;16.40;99.90
24011;DHT22;12217;50.792;4.372;2023-09-19T04:00:18;16.40;99.90
24011;DHT22;12217;50.792;4.372;2023-09-19T04:02:47;16.30;99.90
24011;DHT22;12217;50.792;4.372;2023-09-19T04:05:13;16.20;99.90
24011;DHT22;12217;50.792;4.372;2023-09-19T04:07:39;15.90;99.90
24011;DHT22;12217;50.792;4.372;2023-09-19T04:10:05;16.00;99.90
24011;DHT22;12217;50.792;4.372;2023-09-19T04:12:31;16.00;99.90
24011;DHT22;12217;50.792;4.372;2023-09-19T04:14:57;16.10;99.90
24011;DHT22;12217;50.792;4.372;2023-09-19T04:17:23;16.10;99.90
24011;DHT22;12217;50.792;4.372;2023-09-19T04:19:49;16.10;99.90
24011;DHT22;12217;50.792;4.372;2023-09-19T04:22:15;16.00;99.90
24011;DHT22;12217;50.792;4.372;2023-09-19T04:24:40;16.00;99.90
24011;DHT22;12217;50.792;4.372;2023-09-19T04:27:06;16.10;99.90
24011;DHT22;12217;50.792;4.372;2023-09-19T04:29:32;16.00;99.90
24011;DHT22;12217;50.792;4.372;2023-09-19T04:31:58;16.10;99.90
24011;DHT22;12217;50.792;4.372;2023-09-19T04:34:24;16.00;99.90
24011;DHT22;12217;50.792;4.372;2023-09-19T04:36:50;16.10;99.90
24011;DHT22;12217;50.792;4.372;2023-09-19T04:39:16;15.90;99.90
24011;DHT22;12217;50.792;4.372;2023-09-19T04:41:43;15.80;99.90
24011;DHT22;12217;50.792;4.372;2023-09-19T04:44:11;15.60;99.90
24011;DHT22;12217;50.792;4.372;2023-09-19T04:46:38;15.60;99.90
24011;DHT22;12217;50.792;4.372;2023-09-19T04:49:03;15.60;99.90
24011;DHT22;12217;50.792;4.372;2023-09-19T04:51:30;15.80;99.90
24011;DHT22;12217;50.792;4.372;2023-09-19T04:54:00;15.70;99.90
24011;DHT22;12217;50.792;4.372;2023-09-19T04:56:25;15.50;99.90
24011;DHT22;12217;50.792;4.372;2023-09-19T04:58:51;15.50;99.90
24011;DHT22;12217;50.792;4.372;2023-09-19T05:01:17;15.60;99.90
24011;DHT22;12217;50.792;4.372;2023-09-19T05:03:43;15.60;99.90
24011;DHT22;12217;50.792;4.372;2023-09-19T05:06:10;15.60;99.90
24011;DHT22;12217;50.792;4.372;2023-09-19T05:08:35;15.50;99.90
24011;DHT22;12217;50.792;4.372;2023-09-19T05:11:04;15.60;99.90
24011;DHT22;12217;50.792;4.372;2023-09-19T05:13:30;15.70;99.90
24011;DHT22;12217;50.792;4.372;2023-09-19T05:16:00;15.60;99.90
24011;DHT22;12217;50.792;4.372;2023-09-19T05:18:27;15.40;99.90
24011;DHT22;12217;50.792;4.372;2023-09-19T05:20:53;15.40;99.90
24011;DHT22;12217;50.792;4.372;2023-09-19T05:23:20;15.30;99.90
24011;DHT22;12217;50.792;4.372;2023-09-19T05:25:46;15.20;99.90
24011;DHT22;12217;50.792;4.372;2023-09-19T05:28:12;15.30;99.90
24011;DHT22;12217;50.792;4.372;2023-09-19T05:30:40;15.50;99.90
24011;DHT22;12217;50.792;4.372;2023-09-19T05:33:07;15.40;99.90
24011;DHT22;12217;50.792;4.372;2023-09-19T05:35:33;15.50;99.90
24011;DHT22;12217;50.792;4.372;2023-09-19T05:37:59;15.40;99.90
24011;DHT22;12217;50.792;4.372;2023-09-19T05:40:25;15.40;99.90
24011;DHT22;12217;50.792;4.372;2023-09-19T05:42:51;15.60;99.90
24011;DHT22;12217;50.792;4.372;2023-09-19T05:45:17;15.70;99.90
24011;DHT22;12217;50.792;4.372;2023-09-19T05:47:48;15.70;99.90
24011;DHT22;12217;50.792;4.372;2023-09-19T05:50:14;15.70;99.90
24011;DHT22;12217;50.792;4.372;2023-09-19T05:52:42;15.70;99.90
24011;DHT22;12217;50.792;4.372;2023-09-19T05:55:09;15.50;99.90
24011;DHT22;12217;50.792;4.372;2023-09-19T05:57:36;15.60;99.90
24011;DHT22;12217;50.792;4.372;2023-09-19T06:00:05;15.50;99.90
24011;DHT22;12217;50.792;4.372;2023-09-19T06:02:38;15.50;99.90
24011;DHT22;12217;50.792;4.372;2023-09-19T06:05:06;15.40;99.90
24011;DHT22;12217;50.792;4.372;2023-09-19T06:07:32;15.40;99.90
24011;DHT22;12217;50.792;4.372;2023-09-19T06:10:06;15.30;99.90
24011;DHT22;12217;50.792;4.372;2023-09-19T06:12:39;15.20;99.90
24011;DHT22;12217;50.792;4.372;2023-09-19T06:15:05;15.30;99.90
24011;DHT22;12217;50.792;4.372;2023-09-19T06:17:34;15.40;99.90
24011;DHT22;12217;50.792;4.372;2023-09-19T06:20:06;15.50;99.90
24011;DHT22;12217;50.792;4.372;2023-09-19T06:22:38;15.40;99.90
24011;DHT22;12217;50.792;4.372;2023-09-19T06:25:04;15.40;99.90
24011;DHT22;12217;50.792;4.372;2023-09-19T06:27:30;15.40;99.90
24011;DHT22;12217;50.792;4.372;2023-09-19T06:29:55;15.60;99.90
24011;DHT22;12217;50.792;4.372;2023-09-19T06:32:27;15.40;99.90
24011;DHT22;12217;50.792;4.372;2023-09-19T06:34:53;15.50;99.90
24011;DHT22;12217;50.792;4.372;2023-09-19T06:37:27;15.40;99.90
24011;DHT22;12217;50.792;4.372;2023-09-19T06:39:53;15.50;99.90
24011;DHT22;12217;50.792;4.372;2023-09-19T06:42:19;15.40;99.90
24011;DHT22;12217;50.792;4.372;2023-09-19T06:44:44;15.50;99.90
24011;DHT22;12217;50.792;4.372;2023-09-19T06:47:10;15.50;99.90
24011;DHT22;12217;50.792;4.372;2023-09-19T06:49:36;15.50;99.90
24011;DHT22;12217;50.792;4.372;2023-09-19T06:52:02;15.50;99.90
24011;DHT22;12217;50.792;4.372;2023-09-19T06:54:28;15.50;99.90
24011;DHT22;12217;50.792;4.372;2023-09-19T06:56:59;15.70;99.90
24011;DHT22;12217;50.792;4.372;2023-09-19T06:59:25;15.90;99.90
24011;DHT22;12217;50.792;4.372;2023-09-19T07:01:52;15.90;99.90
24011;DHT22;12217;50.792;4.372;2023-09-19T07:04:18;15.80;99.90
24011;DHT22;12217;50.792;4.372;2023-09-19T07:06:50;15.90;99.90
24011;DHT22;12217;50.792;4.372;2023-09-19T07:09:16;15.90;99.90
24011;DHT22;12217;50.792;4.372;2023-09-19T07:11:44;15.90;99.90
24011;DHT22;12217;50.792;4.372;2023-09-19T07:14:11;15.90;99.90
24011;DHT22;12217;50.792;4.372;2023-09-19T07:16:40;15.80;99.90
24011;DHT22;12217;50.792;4.372;2023-09-19T07:19:08;15.90;99.90
24011;DHT22;12217;50.792;4.372;2023-09-19T07:21:33;16.00;99.90
24011;DHT22;12217;50.792;4.372;2023-09-19T07:24:01;16.10;99.90
24011;DHT22;12217;50.792;4.372;2023-09-19T07:26:28;16.10;99.90
24011;DHT22;12217;50.792;4.372;2023-09-19T07:28:54;16.10;99.90
24011;DHT22;12217;50.792;4.372;2023-09-19T07:31:20;16.10;99.90
24011;DHT22;12217;50.792;4.372;2023-09-19T07:33:45;16.20;99.90
24011;DHT22;12217;50.792;4.372;2023-09-19T07:36:11;16.30;99.90
24011;DHT22;12217;50.792;4.372;2023-09-19T07:38:40;16.30;99.90
24011;DHT22;12217;50.792;4.372;2023-09-19T07:41:07;16.30;99.90
24011;DHT22;12217;50.792;4.372;2023-09-19T07:43:34;16.40;99.90
24011;DHT22;12217;50.792;4.372;2023-09-19T07:46:07;16.30;99.90
24011;DHT22;12217;50.792;4.372;2023-09-19T07:48:37;16.40;99.90
24011;DHT22;12217;50.792;4.372;2023-09-19T07:51:05;16.50;99.90
24011;DHT22;12217;50.792;4.372;2023-09-19T07:53:33;16.40;99.90
24011;DHT22;12217;50.792;4.372;2023-09-19T07:56:07;16.60;99.90
24011;DHT22;12217;50.792;4.372;2023-09-19T07:58:33;16.50;99.90
24011;DHT22;12217;50.792;4.372;2023-09-19T08:01:03;16.70;99.90
24011;DHT22;12217;50.792;4.372;2023-09-19T08:03:29;16.70;99.90
24011;DHT22;12217;50.792;4.372;2023-09-19T08:05:56;16.70;99.90
24011;DHT22;12217;50.792;4.372;2023-09-19T08:08:23;16.70;99.90
24011;DHT22;12217;50.792;4.372;2023-09-19T08:10:56;16.70;99.90
24011;DHT22;12217;50.792;4.372;2023-09-19T08:13:23;16.70;99.90
24011;DHT22;12217;50.792;4.372;2023-09-19T08:15:49;16.70;99.90
24011;DHT22;12217;50.792;4.372;2023-09-19T08:18:16;17.00;99.90
24011;DHT22;12217;50.792;4.372;2023-09-19T08:20:42;17.10;99.90
24011;DHT22;12217;50.792;4.372;2023-09-19T08:23:11;17.10;99.90
24011;DHT22;12217;50.792;4.372;2023-09-19T08:25:37;17.20;99.90
24011;DHT22;12217;50.792;4.372;2023-09-19T08:28:04;17.20;99.90
24011;DHT22;12217;50.792;4.372;2023-09-19T08:30:34;17.10;99.90
24011;DHT22;12217;50.792;4.372;2023-09-19T08:33:00;17.30;99.90
24011;DHT22;12217;50.792;4.372;2023-09-19T08:35:27;17.40;99.90
24011;DHT22;12217;50.792;4.372;2023-09-19T08:37:53;17.50;99.90
24011;DHT22;12217;50.792;4.372;2023-09-19T08:40:19;17.70;99.90
24011;DHT22;12217;50.792;4.372;2023-09-19T08:42:52;17.50;99.90
24011;DHT22;12217;50.792;4.372;2023-09-19T08:45:20;17.50;99.90
24011;DHT22;12217;50.792;4.372;2023-09-19T08:51:03;17.90;99.90
24011;DHT22;12217;50.792;4.372;2023-09-19T08:53:44;18.10;99.90
24011;DHT22;12217;50.792;4.372;2023-09-19T08:56:17;18.20;99.90
24011;DHT22;12217;50.792;4.372;2023-09-19T08:58:51;18.30;99.90
24011;DHT22;12217;50.792;4.372;2023-09-19T09:01:20;18.30;99.90
24011;DHT22;12217;50.792;4.372;2023-09-19T09:03:51;18.20;99.90
24011;DHT22;12217;50.792;4.372;2023-09-19T09:06:22;18.00;99.90
24011;DHT22;12217;50.792;4.372;2023-09-19T09:08:50;18.10;99.90
24011;DHT22;12217;50.792;4.372;2023-09-19T09:11:16;18.30;99.90
24011;DHT22;12217;50.792;4.372;2023-09-19T09:13:46;18.40;99.90
24011;DHT22;12217;50.792;4.372;2023-09-19T09:16:12;18.50;99.90
24011;DHT22;12217;50.792;4.372;2023-09-19T09:18:39;18.60;99.90
24011;DHT22;12217;50.792;4.372;2023-09-19T09:21:05;18.50;99.90
24011;DHT22;12217;50.792;4.372;2023-09-19T09:23:31;18.40;99.90
24011;DHT22;12217;50.792;4.372;2023-09-19T09:25:59;18.30;99.90
24011;DHT22;12217;50.792;4.372;2023-09-19T09:28:30;18.40;99.90
24011;DHT22;12217;50.792;4.372;2023-09-19T09:30:57;18.40;99.90
24011;DHT22;12217;50.792;4.372;2023-09-19T09:33:34;18.40;99.90
24011;DHT22;12217;50.792;4.372;2023-09-19T09:36:01;18.30;99.90
24011;DHT22;12217;50.792;4.372;2023-09-19T09:38:29;18.50;99.90
24011;DHT22;12217;50.792;4.372;2023-09-19T09:41:00;18.70;99.90
24011;DHT22;12217;50.792;4.372;2023-09-19T09:43:36;18.90;99.90
24011;DHT22;12217;50.792;4.372;2023-09-19T09:51:40;19.00;99.90
24011;DHT22;12217;50.792;4.372;2023-09-19T09:54:17;19.10;99.90
24011;DHT22;12217;50.792;4.372;2023-09-19T09:56:58;19.00;99.90
24011;DHT22;12217;50.792;4.372;2023-09-19T10:02:27;18.90;99.90
24011;DHT22;12217;50.792;4.372;2023-09-19T10:05:19;18.70;99.90
24011;DHT22;12217;50.792;4.372;2023-09-19T10:07:49;18.60;99.90
24011;DHT22;12217;50.792;4.372;2023-09-19T10:10:34;18.80;99.90
24011;DHT22;12217;50.792;4.372;2023-09-19T10:13:07;19.00;99.90
24011;DHT22;12217;50.792;4.372;2023-09-19T10:15:38;19.00;99.90
24011;DHT22;12217;50.792;4.372;2023-09-19T10:18:07;19.10;99.90
24011;DHT22;12217;50.792;4.372;2023-09-19T10:20:36;19.20;99.90
24011;DHT22;12217;50.792;4.372;2023-09-19T10:23:09;19.50;99.90
24011;DHT22;12217;50.792;4.372;2023-09-19T10:25:45;19.50;99.90
24011;DHT22;12217;50.792;4.372;2023-09-19T10:28:14;19.80;99.90
24011;DHT22;12217;50.792;4.372;2023-09-19T10:30:44;19.90;99.90
24011;DHT22;12217;50.792;4.372;2023-09-19T10:33:11;20.00;99.90
24011;DHT22;12217;50.792;4.372;2023-09-19T10:35:39;19.80;99.90
24011;DHT22;12217;50.792;4.372;2023-09-19T10:38:06;20.00;99.90
24011;DHT22;12217;50.792;4.372;2023-09-19T10:40:34;20.30;99.90
24011;DHT22;12217;50.792;4.372;2023-09-19T10:43:05;20.60;99.90
24011;DHT22;12217;50.792;4.372;2023-09-19T10:45:32;20.80;99.90
24011;DHT22;12217;50.792;4.372;2023-09-19T10:48:02;20.50;99.90
24011;DHT22;12217;50.792;4.372;2023-09-19T10:51:01;20.50;99.90
24011;DHT22;12217;50.792;4.372;2023-09-19T10:53:47;20.60;99.90
24011;DHT22;12217;50.792;4.372;2023-09-19T10:56:35;20.80;99.90
24011;DHT22;12217;50.792;4.372;2023-09-19T10:59:21;21.10;99.90
24011;DHT22;12217;50.792;4.372;2023-09-19T11:01:56;20.80;99.90
24011;DHT22;12217;50.792;4.372;2023-09-19T11:07:13;20.80;99.90
24011;DHT22;12217;50.792;4.372;2023-09-19T11:09:52;20.70;99.90
24011;DHT22;12217;50.792;4.372;2023-09-19T11:15:02;21.20;99.90
24011;DHT22;12217;50.792;4.372;2023-09-19T11:17:40;21.20;99.90
24011;DHT22;12217;50.792;4.372;2023-09-19T11:30:32;20.80;99.90
24011;DHT22;12217;50.792;4.372;2023-09-19T11:43:50;21.20;99.90
24011;DHT22;12217;50.792;4.372;2023-09-19T11:46:17;21.20;99.90
24011;DHT22;12217;50.792;4.372;2023-09-19T11:48:47;21.30;99.90
24011;DHT22;12217;50.792;4.372;2023-09-19T11:51:18;21.20;99.90
24011;DHT22;12217;50.792;4.372;2023-09-19T11:53:46;21.40;99.90
24011;DHT22;12217;50.792;4.372;2023-09-19T11:56:24;21.30;99.90
24011;DHT22;12217;50.792;4.372;2023-09-19T11:58:52;21.30;99.90
24011;DHT22;12217;50.792;4.372;2023-09-19T12:01:32;21.30;99.90
24011;DHT22;12217;50.792;4.372;2023-09-19T12:04:01;21.00;99.90
24011;DHT22;12217;50.792;4.372;2023-09-19T12:06:28;20.70;99.90
24011;DHT22;12217;50.792;4.372;2023-09-19T12:09:02;20.60;99.90
24011;DHT22;12217;50.792;4.372;2023-09-19T12:11:32;20.50;99.90
24011;DHT22;12217;50.792;4.372;2023-09-19T12:13:59;20.50;99.90
24011;DHT22;12217;50.792;4.372;2023-09-19T12:16:26;20.50;99.90
24011;DHT22;12217;50.792;4.372;2023-09-19T12:18:55;20.50;99.90
24011;DHT22;12217;50.792;4.372;2023-09-19T12:24:27;20.20;99.90
24011;DHT22;12217;50.792;4.372;2023-09-19T12:27:03;20.20;99.90
24011;DHT22;12217;50.792;4.372;2023-09-19T12:29:31;20.30;99.90
24011;DHT22;12217;50.792;4.372;2023-09-19T12:31:58;20.20;99.90
24011;DHT22;12217;50.792;4.372;2023-09-19T12:34:27;20.30;99.90
24011;DHT22;12217;50.792;4.372;2023-09-19T12:37:07;20.30;99.90
24011;DHT22;12217;50.792;4.372;2023-09-19T12:39:49;20.50;99.90
24011;DHT22;12217;50.792;4.372;2023-09-19T12:42:18;20.40;99.90
24011;DHT22;12217;50.792;4.372;2023-09-19T12:44:46;20.20;99.90
24011;DHT22;12217;50.792;4.372;2023-09-19T12:47:15;20.20;99.90
24011;DHT22;12217;50.792;4.372;2023-09-19T12:50:13;20.20;99.90
24011;DHT22;12217;50.792;4.372;2023-09-19T12:52:40;20.30;99.90
24011;DHT22;12217;50.792;4.372;2023-09-19T12:55:06;20.30;99.90
24011;DHT22;12217;50.792;4.372;2023-09-19T12:57:34;20.50;99.90
24011;DHT22;12217;50.792;4.372;2023-09-19T13:00:01;20.40;99.90
24011;DHT22;12217;50.792;4.372;2023-09-19T13:02:27;20.30;99.90
24011;DHT22;12217;50.792;4.372;2023-09-19T13:04:54;20.20;99.90
24011;DHT22;12217;50.792;4.372;2023-09-19T13:07:44;20.20;99.90
24011;DHT22;12217;50.792;4.372;2023-09-19T13:10:10;20.20;99.90
24011;DHT22;12217;50.792;4.372;2023-09-19T13:12:38;20.20;99.90
24011;DHT22;12217;50.792;4.372;2023-09-19T13:15:12;20.00;99.90
24011;DHT22;12217;50.792;4.372;2023-09-19T13:17:56;20.00;99.90
24011;DHT22;12217;50.792;4.372;2023-09-19T13:20:27;20.10;99.90
24011;DHT22;12217;50.792;4.372;2023-09-19T13:22:53;20.10;99.90
24011;DHT22;12217;50.792;4.372;2023-09-19T13:25:25;20.00;99.90
24011;DHT22;12217;50.792;4.372;2023-09-19T13:27:53;20.30;99.90
24011;DHT22;12217;50.792;4.372;2023-09-19T13:30:24;20.40;99.90
24011;DHT22;12217;50.792;4.372;2023-09-19T13:33:09;20.50;99.90
24011;DHT22;12217;50.792;4.372;2023-09-19T13:35:36;20.40;99.90
24011;DHT22;12217;50.792;4.372;2023-09-19T13:38:06;20.40;99.90
24011;DHT22;12217;50.792;4.372;2023-09-19T13:40:37;20.40;99.90
24011;DHT22;12217;50.792;4.372;2023-09-19T13:43:05;20.40;99.90
24011;DHT22;12217;50.792;4.372;2023-09-19T13:45:32;20.30;99.90
24011;DHT22;12217;50.792;4.372;2023-09-19T13:47:57;20.20;99.90
24011;DHT22;12217;50.792;4.372;2023-09-19T13:50:26;20.40;99.90
24011;DHT22;12217;50.792;4.372;2023-09-19T13:52:54;20.60;99.90
24011;DHT22;12217;50.792;4.372;2023-09-19T13:55:21;20.80;99.90
24011;DHT22;12217;50.792;4.372;2023-09-19T13:57:47;21.00;99.90
24011;DHT22;12217;50.792;4.372;2023-09-19T14:00:18;21.00;99.90
24011;DHT22;12217;50.792;4.372;2023-09-19T14:02:44;20.70;99.90
24011;DHT22;12217;50.792;4.372;2023-09-19T14:05:12;20.60;99.90
24011;DHT22;12217;50.792;4.372;2023-09-19T14:07:45;20.50;99.90
24011;DHT22;12217;50.792;4.372;2023-09-19T14:10:11;20.40;99.90
24011;DHT22;12217;50.792;4.372;2023-09-19T14:12:40;20.20;99.90
24011;DHT22;12217;50.792;4.372;2023-09-19T14:15:10;20.20;99.90
24011;DHT22;12217;50.792;4.372;2023-09-19T14:17:37;20.20;99.90
24011;DHT22;12217;50.792;4.372;2023-09-19T14:20:03;20.30;99.90
24011;DHT22;12217;50.792;4.372;2023-09-19T14:22:31;20.30;99.90
24011;DHT22;12217;50.792;4.372;2023-09-19T14:24:56;20.30;99.90
24011;DHT22;12217;50.792;4.372;2023-09-19T14:27:24;20.30;99.90
24011;DHT22;12217;50.792;4.372;2023-09-19T14:29:50;20.40;99.90
24011;DHT22;12217;50.792;4.372;2023-09-19T14:32:17;20.50;99.90
24011;DHT22;12217;50.792;4.372;2023-09-19T14:34:43;20.50;99.90
24011;DHT22;12217;50.792;4.372;2023-09-19T14:37:10;20.60;99.90
24011;DHT22;12217;50.792;4.372;2023-09-19T14:39:37;20.50;99.90
24011;DHT22;12217;50.792;4.372;2023-09-19T14:42:04;20.60;99.90
24011;DHT22;12217;50.792;4.372;2023-09-19T14:44:30;20.70;99.90
24011;DHT22;12217;50.792;4.372;2023-09-19T14:46:55;21.00;99.90
24011;DHT22;12217;50.792;4.372;2023-09-19T14:49:21;21.40;99.90
24011;DHT22;12217;50.792;4.372;2023-09-19T14:51:47;21.60;99.90
24011;DHT22;12217;50.792;4.372;2023-09-19T14:54:17;21.50;99.90
24011;DHT22;12217;50.792;4.372;2023-09-19T14:56:44;21.40;99.90
24011;DHT22;12217;50.792;4.372;2023-09-19T14:59:10;21.30;99.90
24011;DHT22;12217;50.792;4.372;2023-09-19T15:01:41;20.80;99.90
24011;DHT22;12217;50.792;4.372;2023-09-19T15:04:07;20.70;99.90
24011;DHT22;12217;50.792;4.372;2023-09-19T15:06:34;20.40;99.90
24011;DHT22;12217;50.792;4.372;2023-09-19T15:08:59;20.40;99.90
24011;DHT22;12217;50.792;4.372;2023-09-19T15:11:26;20.40;99.90
24011;DHT22;12217;50.792;4.372;2023-09-19T15:13:52;20.50;99.90
24011;DHT22;12217;50.792;4.372;2023-09-19T15:16:19;20.40;99.90
24011;DHT22;12217;50.792;4.372;2023-09-19T15:18:46;20.30;99.90
24011;DHT22;12217;50.792;4.372;2023-09-19T15:21:13;20.20;99.90
24011;DHT22;12217;50.792;4.372;2023-09-19T15:23:41;20.20;99.90
24011;DHT22;12217;50.792;4.372;2023-09-19T15:26:08;20.20;99.90
24011;DHT22;12217;50.792;4.372;2023-09-19T15:28:34;20.20;99.90
24011;DHT22;12217;50.792;4.372;2023-09-19T15:31:08;20.20;99.90
24011;DHT22;12217;50.792;4.372;2023-09-19T15:33:34;20.20;99.90
24011;DHT22;12217;50.792;4.372;2023-09-19T15:36:07;20.10;99.90
24011;DHT22;12217;50.792;4.372;2023-09-19T15:41:22;19.90;99.90
24011;DHT22;12217;50.792;4.372;2023-09-19T15:43:48;19.90;99.90
24011;DHT22;12217;50.792;4.372;2023-09-19T15:46:14;19.90;99.90
24011;DHT22;12217;50.792;4.372;2023-09-19T15:48:41;19.90;99.90
24011;DHT22;12217;50.792;4.372;2023-09-19T15:51:07;19.90;99.90
24011;DHT22;12217;50.792;4.372;2023-09-19T15:53:46;20.00;99.90
24011;DHT22;12217;50.792;4.372;2023-09-19T15:56:19;19.90;99.90
24011;DHT22;12217;50.792;4.372;2023-09-19T15:58:53;20.00;99.90
24011;DHT22;12217;50.792;4.372;2023-09-19T16:01:20;20.10;99.90
24011;DHT22;12217;50.792;4.372;2023-09-19T16:03:51;19.90;99.90
24011;DHT22;12217;50.792;4.372;2023-09-19T16:06:25;19.90;99.90
24011;DHT22;12217;50.792;4.372;2023-09-19T16:08:54;19.90;99.90
24011;DHT22;12217;50.792;4.372;2023-09-19T16:11:22;19.90;99.90
24011;DHT22;12217;50.792;4.372;2023-09-19T16:13:49;19.90;99.90
24011;DHT22;12217;50.792;4.372;2023-09-19T16:16:16;20.10;99.90
24011;DHT22;12217;50.792;4.372;2023-09-19T16:18:46;20.00;99.90
24011;DHT22;12217;50.792;4.372;2023-09-19T16:21:13;19.90;99.90
24011;DHT22;12217;50.792;4.372;2023-09-19T16:23:39;19.70;99.90
24011;DHT22;12217;50.792;4.372;2023-09-19T16:26:07;19.60;99.90
24011;DHT22;12217;50.792;4.372;2023-09-19T16:28:35;19.70;99.90
24011;DHT22;12217;50.792;4.372;2023-09-19T16:31:03;19.80;99.90
24011;DHT22;12217;50.792;4.372;2023-09-19T16:33:38;19.70;99.90
24011;DHT22;12217;50.792;4.372;2023-09-19T16:36:13;19.90;99.90
24011;DHT22;12217;50.792;4.372;2023-09-19T16:38:41;19.90;99.90
24011;DHT22;12217;50.792;4.372;2023-09-19T16:41:07;19.80;99.90